Terminal Aerodrome Forecast
Issued by NWS Pueblo, CO

Home | Current Version | Previous Version | Text Only | Print | Product List | Glossary On
Versions: 1 2 3 4 5 6 7 8 9 10 11 12 13 14 15 16 17 18 19 20 21 22 23 24 25 26 27 28 29
000
FTUS45 KPUB 262320
TAFALS
TAF
KALS 262320Z 2700/2724 25008KT P6SM VCTS SCT060CB BKN120
      TEMPO 2700/2701 VRB20G30KT -TSRA BKN060CB
     FM270300 18006KT P6SM SCT120 BKN200
     FM270600 VRB06KT P6SM SCT200
     FM271600 16008KT P6SM SCT120 SCT200
     FM272100 23012KT P6SM VCTS SCT080CB BKN140=

USA.gov is the U.S. government's official web portal to all federal, state and local government web resources and services.